Time;durP1;ratioP1;P1;durP2;ratioP2;P2;SDS_P1;SDS_P2;PMS_P1;PMS_P2;Temp;Humidity;BMP_temperature;BMP_pressure;BME280_temperature;BME280_humidity;BME280_pressure;Samples;Min_cycle;Max_cycle;Signal;HPM_P1;HPM_P2
2023/09/21 00:00:20;;;;;;;2.97;1.55;;;;;;;;;;4925434;29;20033;-80
2023/09/21 00:02:49;;;;;;;2.83;1.70;;;;;;;;;;4914744;29;20091;-80
2023/09/21 00:05:17;;;;;;;4.38;1.80;;;;;;;;;;4908538;29;20041;-80
2023/09/21 00:07:42;;;;;;;3.85;1.90;;;;;;;;;;4911859;29;20417;-80
2023/09/21 00:10:08;;;;;;;3.90;1.88;;;;;;;;;;4913466;29;20035;-80
2023/09/21 00:12:34;;;;;;;5.28;1.88;;;;;;;;;;4912917;29;20043;-80
2023/09/21 00:15:00;;;;;;;3.92;1.80;;;;;;;;;;4911513;29;20408;-80
2023/09/21 00:17:27;;;;;;;3.95;1.88;;;;;;;;;;4913699;29;20041;-80
2023/09/21 00:19:53;;;;;;;3.17;1.60;;;;;;;;;;4912498;29;20039;-81
2023/09/21 00:22:18;;;;;;;4.22;2.00;;;;;;;;;;4913155;29;20036;-81
2023/09/21 00:24:44;;;;;;;6.38;1.75;;;;;;;;;;4911826;29;20068;-81
2023/09/21 00:27:09;;;;;;;3.20;1.50;;;;;;;;;;4912896;29;20028;-81
2023/09/21 00:29:36;;;;;;;3.65;1.83;;;;;;;;;;4910458;29;20021;-80
2023/09/21 00:32:01;;;;;;;3.65;1.63;;;;;;;;;;4910724;29;20102;-81
2023/09/21 00:34:26;;;;;;;3.90;2.00;;;;;;;;;;4910232;29;20493;-80
2023/09/21 00:36:51;;;;;;;3.60;1.98;;;;;;;;;;4908151;29;20039;-80
2023/09/21 00:39:17;;;;;;;4.27;2.33;;;;;;;;;;4910438;29;20059;-81
2023/09/21 00:41:43;;;;;;;5.68;2.50;;;;;;;;;;4912144;29;20784;-81
2023/09/21 00:44:09;;;;;;;5.38;2.50;;;;;;;;;;4910028;29;20032;-81
2023/09/21 00:46:36;;;;;;;3.63;2.10;;;;;;;;;;4910935;29;20059;-81
2023/09/21 00:49:03;;;;;;;3.25;1.48;;;;;;;;;;4916086;29;20489;-80
2023/09/21 00:51:29;;;;;;;4.18;2.15;;;;;;;;;;4907363;29;20104;-80
2023/09/21 00:53:54;;;;;;;3.40;1.70;;;;;;;;;;4912639;29;20039;-80
2023/09/21 00:56:20;;;;;;;5.10;1.60;;;;;;;;;;4908918;29;20123;-80
2023/09/21 00:58:50;;;;;;;6.82;1.65;;;;;;;;;;4905725;29;20024;-80
2023/09/21 01:01:16;;;;;;;3.88;1.67;;;;;;;;;;4909464;29;20047;-81
2023/09/21 01:03:43;;;;;;;4.32;2.03;;;;;;;;;;4906213;29;20032;-80
2023/09/21 01:06:08;;;;;;;4.32;1.70;;;;;;;;;;4909583;29;20071;-81
2023/09/21 01:08:34;;;;;;;4.13;2.03;;;;;;;;;;4908593;29;20633;-81
2023/09/21 01:11:06;;;;;;;4.72;1.90;;;;;;;;;;4911691;29;20040;-80
2023/09/21 01:13:31;;;;;;;3.45;2.00;;;;;;;;;;4910349;29;20047;-81
2023/09/21 01:16:03;;;;;;;3.38;1.73;;;;;;;;;;4906138;29;20032;-81
2023/09/21 01:18:30;;;;;;;4.00;2.10;;;;;;;;;;4899201;29;20052;-81
2023/09/21 01:21:04;;;;;;;3.40;1.55;;;;;;;;;;4926742;29;20040;-80
2023/09/21 01:23:39;;;;;;;3.83;1.40;;;;;;;;;;4904669;29;20041;-81
2023/09/21 01:26:05;;;;;;;3.88;1.67;;;;;;;;;;4910093;29;20028;-81
2023/09/21 01:28:30;;;;;;;5.30;1.80;;;;;;;;;;4914381;29;20089;-81
2023/09/21 01:30:58;;;;;;;3.35;1.88;;;;;;;;;;4908415;29;20029;-80
2023/09/21 01:33:24;;;;;;;3.50;1.65;;;;;;;;;;4911224;29;20528;-81
2023/09/21 01:35:49;;;;;;;4.72;2.15;;;;;;;;;;4911257;29;20032;-82
2023/09/21 01:38:14;;;;;;;4.10;2.08;;;;;;;;;;4907626;29;20033;-81
2023/09/21 01:40:41;;;;;;;4.13;1.83;;;;;;;;;;4911503;29;20024;-81
2023/09/21 01:43:08;;;;;;;5.80;2.20;;;;;;;;;;4908589;29;20031;-81
2023/09/21 01:45:34;;;;;;;4.03;1.77;;;;;;;;;;4911544;29;20051;-81
2023/09/21 01:48:00;;;;;;;3.63;1.75;;;;;;;;;;4922004;29;20040;-81
2023/09/21 01:50:25;;;;;;;3.40;1.58;;;;;;;;;;4904514;29;20025;-81
2023/09/21 01:52:51;;;;;;;3.20;1.60;;;;;;;;;;4911234;29;20485;-81
2023/09/21 01:55:17;;;;;;;3.42;1.58;;;;;;;;;;4908896;29;20020;-81
2023/09/21 01:57:43;;;;;;;3.58;1.90;;;;;;;;;;4911010;29;20029;-81
2023/09/21 02:00:21;;;;;;;3.40;1.92;;;;;;;;;;4910261;29;20476;-81
2023/09/21 02:02:47;;;;;;;3.22;1.35;;;;;;;;;;4907632;29;20036;-81
2023/09/21 02:05:13;;;;;;;3.63;1.80;;;;;;;;;;4908485;29;20098;-81
2023/09/21 02:07:40;;;;;;;4.85;1.70;;;;;;;;;;4909732;29;20544;-80
2023/09/21 02:10:08;;;;;;;3.42;1.98;;;;;;;;;;4907998;29;20168;-81
2023/09/21 02:12:38;;;;;;;6.32;2.08;;;;;;;;;;4906856;29;20029;-81
2023/09/21 02:15:12;;;;;;;3.25;1.50;;;;;;;;;;4911317;29;20024;-81
2023/09/21 02:17:39;;;;;;;3.97;2.03;;;;;;;;;;4905499;29;20044;-81
2023/09/21 02:20:12;;;;;;;5.03;1.88;;;;;;;;;;4912695;29;20050;-81
2023/09/21 02:22:37;;;;;;;6.18;1.77;;;;;;;;;;4891921;29;20040;-81
2023/09/21 02:25:05;;;;;;;2.83;1.55;;;;;;;;;;4907353;29;20024;-81
2023/09/21 02:27:34;;;;;;;3.85;1.60;;;;;;;;;;4906380;29;20074;-81
2023/09/21 02:30:00;;;;;;;4.03;1.42;;;;;;;;;;4920128;29;20024;-81
2023/09/21 02:32:25;;;;;;;4.10;1.80;;;;;;;;;;4906020;29;20084;-81
2023/09/21 02:34:51;;;;;;;3.60;1.63;;;;;;;;;;4922569;29;20107;-81
2023/09/21 02:37:16;;;;;;;3.45;1.52;;;;;;;;;;4904657;29;20504;-81
2023/09/21 02:39:43;;;;;;;3.13;1.90;;;;;;;;;;4909387;29;20039;-81
2023/09/21 02:42:09;;;;;;;2.92;1.73;;;;;;;;;;4906147;29;20044;-81
2023/09/21 02:44:34;;;;;;;3.85;1.67;;;;;;;;;;4906782;29;20390;-80
2023/09/21 02:46:59;;;;;;;3.88;1.60;;;;;;;;;;4910133;29;20031;-81
2023/09/21 02:49:25;;;;;;;5.05;1.88;;;;;;;;;;4912301;29;20409;-81
2023/09/21 02:51:52;;;;;;;5.25;2.22;;;;;;;;;;4908832;29;20032;-81
2023/09/21 02:54:17;;;;;;;3.55;1.90;;;;;;;;;;4906409;29;20033;-80
2023/09/21 02:56:43;;;;;;;3.88;1.65;;;;;;;;;;4907067;29;20744;-81
2023/09/21 02:59:13;;;;;;;3.97;1.48;;;;;;;;;;4910027;29;20028;-81
2023/09/21 03:01:38;;;;;;;3.33;1.70;;;;;;;;;;4904680;29;20024;-81
2023/09/21 03:04:04;;;;;;;2.90;1.58;;;;;;;;;;4892093;29;20039;-81
2023/09/21 03:06:32;;;;;;;4.35;1.90;;;;;;;;;;4891590;29;20029;-80
2023/09/21 03:08:57;;;;;;;3.42;1.67;;;;;;;;;;4890145;29;20615;-80
2023/09/21 03:11:23;;;;;;;5.40;2.08;;;;;;;;;;4909698;29;20036;-81
2023/09/21 03:13:48;;;;;;;4.10;2.00;;;;;;;;;;4906446;29;20039;-81
2023/09/21 03:16:16;;;;;;;3.85;1.95;;;;;;;;;;4899752;29;20540;-81
2023/09/21 03:18:41;;;;;;;3.15;1.67;;;;;;;;;;4911746;29;20036;-81
2023/09/21 03:21:08;;;;;;;4.00;1.92;;;;;;;;;;4905363;29;20067;-81
2023/09/21 03:23:33;;;;;;;4.15;1.52;;;;;;;;;;4894298;29;20093;-81
2023/09/21 03:25:59;;;;;;;3.90;1.80;;;;;;;;;;4909232;29;20028;-81
2023/09/21 03:28:27;;;;;;;3.05;1.73;;;;;;;;;;4904598;29;20286;-80
2023/09/21 03:30:54;;;;;;;3.63;1.90;;;;;;;;;;4919944;29;20028;-80
2023/09/21 03:33:20;;;;;;;2.30;1.40;;;;;;;;;;4904831;29;20040;-81
2023/09/21 03:35:45;;;;;;;3.88;1.83;;;;;;;;;;4921517;29;20115;-81
2023/09/21 03:38:14;;;;;;;4.00;1.88;;;;;;;;;;4894333;29;20070;-80
2023/09/21 03:40:40;;;;;;;3.40;1.83;;;;;;;;;;4914687;29;20406;-80
2023/09/21 03:43:07;;;;;;;4.65;1.92;;;;;;;;;;4902670;29;20032;-81
2023/09/21 03:45:34;;;;;;;2.42;1.30;;;;;;;;;;4910857;29;20067;-80
2023/09/21 03:48:04;;;;;;;4.32;1.92;;;;;;;;;;4906149;29;20135;-81
2023/09/21 03:50:32;;;;;;;4.38;1.80;;;;;;;;;;4902524;29;20029;-79
2023/09/21 03:52:59;;;;;;;4.88;1.85;;;;;;;;;;4908328;29;20425;-78
2023/09/21 03:55:25;;;;;;;3.78;1.85;;;;;;;;;;4900527;29;20118;-79
2023/09/21 03:57:50;;;;;;;3.60;1.88;;;;;;;;;;4906834;29;20029;-80
2023/09/21 04:00:29;;;;;;;3.13;1.63;;;;;;;;;;4899879;29;20056;-79
2023/09/21 04:02:59;;;;;;;3.20;1.40;;;;;;;;;;4908242;29;20157;-79
2023/09/21 04:05:26;;;;;;;3.47;1.65;;;;;;;;;;4905685;29;20066;-79
2023/09/21 04:07:51;;;;;;;4.82;2.13;;;;;;;;;;4924302;29;20470;-79
2023/09/21 04:10:16;;;;;;;4.22;2.00;;;;;;;;;;4918692;29;20036;-79
2023/09/21 04:12:42;;;;;;;2.90;1.70;;;;;;;;;;4908623;29;20040;-78
2023/09/21 04:15:08;;;;;;;3.15;1.73;;;;;;;;;;4912066;29;20049;-79
2023/09/21 04:17:35;;;;;;;3.90;1.90;;;;;;;;;;4905400;29;20029;-80
2023/09/21 04:20:00;;;;;;;4.35;2.15;;;;;;;;;;4881886;29;20037;-79
2023/09/21 04:22:26;;;;;;;2.92;1.67;;;;;;;;;;4918363;29;20081;-79
2023/09/21 04:24:52;;;;;;;3.25;1.75;;;;;;;;;;4902505;29;20025;-79
2023/09/21 04:27:17;;;;;;;4.40;1.60;;;;;;;;;;4902677;29;20044;-78
2023/09/21 04:29:43;;;;;;;3.60;1.65;;;;;;;;;;4901934;29;20032;-79
2023/09/21 04:32:09;;;;;;;3.65;2.30;;;;;;;;;;4923887;29;20033;-78
2023/09/21 04:34:36;;;;;;;4.75;2.40;;;;;;;;;;4924725;29;20071;-79
2023/09/21 04:37:01;;;;;;;3.67;2.10;;;;;;;;;;4906258;29;20032;-78
2023/09/21 04:39:27;;;;;;;2.97;1.77;;;;;;;;;;4906063;29;20028;-78
2023/09/21 04:41:52;;;;;;;4.03;1.90;;;;;;;;;;4902921;29;20061;-79
2023/09/21 04:44:18;;;;;;;3.75;1.67;;;;;;;;;;4910291;29;20129;-78
2023/09/21 04:46:43;;;;;;;4.90;2.03;;;;;;;;;;4907188;29;20024;-79
2023/09/21 04:49:09;;;;;;;4.38;2.00;;;;;;;;;;4905107;29;20032;-79
2023/09/21 04:51:34;;;;;;;4.07;1.90;;;;;;;;;;4918999;29;20029;-79
2023/09/21 04:54:00;;;;;;;9.50;2.47;;;;;;;;;;4912673;29;20025;-79
2023/09/21 04:56:26;;;;;;;6.38;3.75;;;;;;;;;;4915185;29;20484;-78
2023/09/21 04:58:55;;;;;;;9.23;4.82;;;;;;;;;;4903344;29;20040;-78
2023/09/21 05:01:21;;;;;;;10.75;5.82;;;;;;;;;;4902556;29;20032;-77
2023/09/21 05:03:46;;;;;;;9.02;5.65;;;;;;;;;;4909868;29;20031;-79
2023/09/21 05:06:13;;;;;;;9.50;6.32;;;;;;;;;;4905400;29;20025;-78
2023/09/21 05:08:38;;;;;;;9.88;5.05;;;;;;;;;;4910616;29;20073;-79
2023/09/21 05:11:04;;;;;;;7.25;3.72;;;;;;;;;;4904221;29;20737;-79
2023/09/21 05:13:29;;;;;;;5.47;2.95;;;;;;;;;;4907727;29;20127;-79
2023/09/21 05:15:54;;;;;;;3.57;2.20;;;;;;;;;;4910663;29;20029;-79
2023/09/21 05:18:19;;;;;;;3.70;2.13;;;;;;;;;;4907886;29;20366;-79
2023/09/21 05:20:45;;;;;;;4.00;2.00;;;;;;;;;;4906481;29;20033;-79
2023/09/21 05:23:10;;;;;;;5.05;2.50;;;;;;;;;;4910000;29;20292;-79
2023/09/21 05:25:35;;;;;;;4.60;2.50;;;;;;;;;;4908737;29;20034;-79
2023/09/21 05:28:01;;;;;;;3.67;1.77;;;;;;;;;;4912253;29;20043;-79
2023/09/21 05:30:28;;;;;;;3.88;2.15;;;;;;;;;;4908812;29;20288;-79
2023/09/21 05:32:56;;;;;;;7.20;2.47;;;;;;;;;;4902364;29;20112;-79
2023/09/21 05:35:23;;;;;;;5.05;2.45;;;;;;;;;;4907336;29;20039;-79
2023/09/21 05:37:48;;;;;;;4.25;1.90;;;;;;;;;;4912607;29;20028;-78
2023/09/21 05:40:14;;;;;;;6.07;2.63;;;;;;;;;;4908334;29;20888;-77
2023/09/21 05:42:41;;;;;;;4.68;2.28;;;;;;;;;;4904099;29;20076;-79
2023/09/21 05:45:07;;;;;;;5.35;2.53;;;;;;;;;;4903900;29;20025;-79
2023/09/21 05:47:32;;;;;;;7.10;2.78;;;;;;;;;;4909913;29;20032;-78
2023/09/21 05:49:57;;;;;;;5.28;2.30;;;;;;;;;;4915173;29;20024;-79
2023/09/21 05:52:24;;;;;;;3.97;2.03;;;;;;;;;;4909066;29;20037;-79
2023/09/21 05:54:49;;;;;;;5.38;2.13;;;;;;;;;;4905005;29;20278;-79
2023/09/21 05:57:16;;;;;;;5.10;2.35;;;;;;;;;;4911165;29;20058;-79
2023/09/21 05:59:41;;;;;;;4.80;2.25;;;;;;;;;;4901528;29;20051;-79
2023/09/21 06:02:08;;;;;;;4.80;2.40;;;;;;;;;;4910531;29;20028;-79
2023/09/21 06:04:34;;;;;;;5.10;2.17;;;;;;;;;;4907830;29;20033;-79
2023/09/21 06:07:00;;;;;;;5.05;2.20;;;;;;;;;;4913045;29;20473;-79
2023/09/21 06:09:25;;;;;;;6.65;2.97;;;;;;;;;;4906683;29;20056;-79
2023/09/21 06:11:51;;;;;;;4.22;2.58;;;;;;;;;;4908047;29;20063;-79
2023/09/21 06:14:17;;;;;;;8.40;3.30;;;;;;;;;;4907876;29;20063;-79
2023/09/21 06:16:42;;;;;;;7.70;3.05;;;;;;;;;;4908650;29;20653;-79
2023/09/21 06:19:09;;;;;;;4.55;2.10;;;;;;;;;;4908840;29;20055;-79
2023/09/21 06:21:35;;;;;;;5.25;2.75;;;;;;;;;;4908199;29;20045;-79
2023/09/21 06:24:01;;;;;;;5.75;2.55;;;;;;;;;;4900784;29;20031;-78
2023/09/21 06:26:26;;;;;;;8.82;4.43;;;;;;;;;;4908118;29;20032;-79
2023/09/21 06:28:51;;;;;;;9.83;4.80;;;;;;;;;;4907971;29;20028;-79
2023/09/21 06:31:20;;;;;;;6.25;4.20;;;;;;;;;;4911001;29;20316;-79
2023/09/21 06:33:45;;;;;;;8.38;5.00;;;;;;;;;;4910967;29;20036;-79
2023/09/21 06:36:20;;;;;;;5.63;3.20;;;;;;;;;;4914056;29;20040;-79
2023/09/21 06:38:50;;;;;;;7.18;4.00;;;;;;;;;;4903047;29;20332;-79
2023/09/21 06:41:15;;;;;;;10.50;4.90;;;;;;;;;;4904905;29;20052;-79
2023/09/21 06:43:44;;;;;;;9.18;5.30;;;;;;;;;;4907945;29;20076;-79
2023/09/21 06:46:09;;;;;;;6.18;3.88;;;;;;;;;;4908518;29;20127;-78
2023/09/21 06:48:35;;;;;;;6.25;3.33;;;;;;;;;;4919233;29;20081;-79
2023/09/21 06:51:00;;;;;;;6.63;3.58;;;;;;;;;;4906892;29;20587;-79
2023/09/21 06:53:25;;;;;;;5.95;3.28;;;;;;;;;;4901094;29;20490;-79
2023/09/21 06:55:50;;;;;;;6.03;2.75;;;;;;;;;;4907731;29;20036;-79
2023/09/21 06:58:16;;;;;;;8.57;3.15;;;;;;;;;;4906950;29;20039;-78
2023/09/21 07:00:42;;;;;;;4.93;3.13;;;;;;;;;;4903577;29;20041;-78
2023/09/21 07:03:07;;;;;;;4.90;3.15;;;;;;;;;;4913221;29;20047;-79
2023/09/21 07:05:32;;;;;;;4.70;2.53;;;;;;;;;;4921962;29;20033;-79
2023/09/21 07:07:58;;;;;;;9.37;4.70;;;;;;;;;;4910269;29;20047;-79
2023/09/21 07:10:23;;;;;;;6.63;4.65;;;;;;;;;;4907589;29;20292;-79
2023/09/21 07:12:48;;;;;;;6.57;3.70;;;;;;;;;;4904719;29;20028;-79
2023/09/21 07:15:13;;;;;;;5.65;3.75;;;;;;;;;;4908761;29;20036;-79
2023/09/21 07:17:39;;;;;;;7.35;3.75;;;;;;;;;;4908989;29;20493;-79
2023/09/21 07:20:06;;;;;;;6.75;4.38;;;;;;;;;;4899414;29;20420;-79
2023/09/21 07:22:31;;;;;;;6.72;5.40;;;;;;;;;;4901094;29;20032;-78
2023/09/21 07:24:56;;;;;;;9.10;6.00;;;;;;;;;;4903260;29;20120;-79
2023/09/21 07:27:22;;;;;;;8.80;5.10;;;;;;;;;;4907604;29;20489;-79
2023/09/21 07:29:47;;;;;;;7.53;3.67;;;;;;;;;;4909339;29;20279;-80
2023/09/21 07:32:12;;;;;;;6.43;3.85;;;;;;;;;;4906658;29;20039;-79
2023/09/21 07:34:37;;;;;;;6.37;3.57;;;;;;;;;;4906797;29;20490;-80
2023/09/21 07:37:02;;;;;;;7.10;3.10;;;;;;;;;;4907563;29;20313;-79
2023/09/21 07:39:28;;;;;;;5.53;2.80;;;;;;;;;;4908418;29;20044;-79
2023/09/21 07:41:53;;;;;;;6.20;4.00;;;;;;;;;;4910349;29;20288;-80
2023/09/21 07:44:18;;;;;;;5.82;2.67;;;;;;;;;;4901467;29;20553;-79
2023/09/21 07:46:44;;;;;;;9.02;3.25;;;;;;;;;;4906630;29;20097;-79
2023/09/21 07:49:09;;;;;;;5.80;3.25;;;;;;;;;;4908687;29;20028;-80
2023/09/21 07:51:34;;;;;;;5.93;3.05;;;;;;;;;;4885741;29;20056;-80
2023/09/21 07:54:00;;;;;;;6.32;3.58;;;;;;;;;;4903041;29;20088;-80
2023/09/21 07:56:26;;;;;;;5.32;2.97;;;;;;;;;;4914436;29;20040;-80
2023/09/21 07:58:51;;;;;;;5.30;2.78;;;;;;;;;;4911070;29;20036;-80
2023/09/21 08:01:17;;;;;;;6.32;3.33;;;;;;;;;;4909335;29;20041;-80
2023/09/21 08:03:42;;;;;;;4.72;2.70;;;;;;;;;;4907134;29;20048;-79
2023/09/21 08:06:07;;;;;;;7.13;2.77;;;;;;;;;;4907692;29;20040;-80
2023/09/21 08:08:32;;;;;;;7.00;3.10;;;;;;;;;;4904954;29;20319;-80
2023/09/21 08:10:57;;;;;;;6.17;2.67;;;;;;;;;;4908596;29;20288;-80
2023/09/21 08:13:24;;;;;;;6.73;2.50;;;;;;;;;;4912781;29;20277;-80
2023/09/21 08:15:49;;;;;;;6.68;3.10;;;;;;;;;;4910800;29;20698;-80
2023/09/21 08:18:14;;;;;;;6.78;2.90;;;;;;;;;;4911912;29;20052;-80
2023/09/21 08:20:39;;;;;;;6.82;2.63;;;;;;;;;;4906688;29;20115;-80
2023/09/21 08:23:08;;;;;;;4.72;2.38;;;;;;;;;;4913615;29;20047;-80
2023/09/21 08:25:35;;;;;;;6.15;2.35;;;;;;;;;;4910183;29;20028;-80
2023/09/21 08:28:00;;;;;;;6.38;3.15;;;;;;;;;;4911317;29;20724;-80
2023/09/21 08:30:25;;;;;;;5.38;2.28;;;;;;;;;;4911822;29;20063;-80
2023/09/21 08:32:50;;;;;;;8.90;2.88;;;;;;;;;;4895783;29;20494;-79
2023/09/21 08:35:16;;;;;;;5.77;2.93;;;;;;;;;;4914247;29;20046;-80
2023/09/21 08:37:41;;;;;;;7.10;3.42;;;;;;;;;;4911475;29;20372;-80
2023/09/21 08:40:07;;;;;;;10.45;4.65;;;;;;;;;;4911956;29;20040;-79
2023/09/21 08:42:32;;;;;;;5.57;2.72;;;;;;;;;;4907604;29;20390;-80
2023/09/21 08:44:57;;;;;;;5.03;3.40;;;;;;;;;;4913120;29;20093;-80
2023/09/21 08:47:23;;;;;;;8.65;4.68;;;;;;;;;;4911299;29;20060;-79
2023/09/21 08:49:49;;;;;;;6.05;3.42;;;;;;;;;;4912238;29;20024;-79
2023/09/21 08:52:14;;;;;;;6.17;2.80;;;;;;;;;;4911561;29;20088;-80
2023/09/21 08:54:40;;;;;;;6.43;3.13;;;;;;;;;;4918573;29;20276;-80
2023/09/21 08:57:07;;;;;;;5.93;2.55;;;;;;;;;;4910628;29;20291;-80
2023/09/21 08:59:33;;;;;;;10.70;2.40;;;;;;;;;;4908738;29;20044;-80
2023/09/21 09:01:58;;;;;;;8.32;2.97;;;;;;;;;;4911466;29;20079;-80
2023/09/21 09:04:23;;;;;;;4.10;2.20;;;;;;;;;;4910660;29;20029;-80
2023/09/21 09:06:49;;;;;;;5.55;2.20;;;;;;;;;;4896626;29;20032;-80
2023/09/21 09:09:15;;;;;;;8.80;3.42;;;;;;;;;;4906171;29;20032;-80
2023/09/21 09:11:44;;;;;;;9.80;2.58;;;;;;;;;;4905820;29;20338;-80
2023/09/21 09:14:13;;;;;;;4.85;2.88;;;;;;;;;;4909313;29;20036;-80
2023/09/21 09:16:38;;;;;;;5.20;2.08;;;;;;;;;;4906070;29;20123;-80
2023/09/21 09:19:05;;;;;;;5.43;2.03;;;;;;;;;;4916778;29;20074;-80
2023/09/21 09:21:31;;;;;;;4.35;2.20;;;;;;;;;;4915131;29;20070;-80
2023/09/21 09:23:56;;;;;;;5.35;2.50;;;;;;;;;;4915454;29;20421;-80
2023/09/21 09:26:21;;;;;;;3.30;1.60;;;;;;;;;;4909975;29;20036;-80
2023/09/21 09:28:47;;;;;;;8.82;4.68;;;;;;;;;;4911346;29;20277;-81
2023/09/21 09:31:12;;;;;;;11.00;4.15;;;;;;;;;;4910603;29;21290;-80
2023/09/21 09:33:38;;;;;;;6.07;2.83;;;;;;;;;;4910748;29;20049;-80
2023/09/21 09:36:03;;;;;;;5.65;2.67;;;;;;;;;;4910605;29;20848;-80
2023/09/21 09:38:32;;;;;;;4.60;3.33;;;;;;;;;;4910367;29;20072;-80
2023/09/21 09:41:00;;;;;;;4.97;1.73;;;;;;;;;;4912131;29;20036;-80
2023/09/21 09:43:26;;;;;;;2.60;1.48;;;;;;;;;;4905759;29;20039;-80
2023/09/21 09:45:52;;;;;;;5.68;2.67;;;;;;;;;;4912841;29;20036;-80
2023/09/21 09:48:19;;;;;;;5.25;2.53;;;;;;;;;;4891973;29;20219;-80
2023/09/21 09:50:50;;;;;;;5.07;2.33;;;;;;;;;;4912301;29;20170;-80
2023/09/21 09:53:17;;;;;;;7.40;2.33;;;;;;;;;;4920421;29;20032;-81
2023/09/21 09:55:42;;;;;;;7.57;4.18;;;;;;;;;;4910129;29;20051;-81
2023/09/21 09:58:08;;;;;;;9.25;4.22;;;;;;;;;;4909947;29;20422;-80
2023/09/21 10:00:35;;;;;;;3.40;2.08;;;;;;;;;;4903446;29;20032;-80
2023/09/21 10:03:02;;;;;;;6.05;2.55;;;;;;;;;;4913927;29;20032;-81
2023/09/21 10:05:28;;;;;;;4.10;1.83;;;;;;;;;;4910252;29;20078;-81
2023/09/21 10:08:06;;;;;;;11.57;3.15;;;;;;;;;;4907555;29;20036;-81
2023/09/21 10:10:47;;;;;;;4.68;2.83;;;;;;;;;;4908562;29;20032;-81
2023/09/21 10:13:13;;;;;;;5.95;2.00;;;;;;;;;;4923763;29;20099;-81
2023/09/21 10:15:39;;;;;;;5.72;2.30;;;;;;;;;;4912978;29;20111;-81
2023/09/21 10:18:05;;;;;;;4.97;2.80;;;;;;;;;;4910966;29;20501;-81
2023/09/21 10:20:34;;;;;;;5.63;2.58;;;;;;;;;;4911534;29;20037;-78
2023/09/21 10:23:01;;;;;;;7.13;2.88;;;;;;;;;;4909073;29;20112;-82
2023/09/21 10:25:47;;;;;;;5.60;3.60;;;;;;;;;;4910075;29;20034;-81
2023/09/21 10:28:27;;;;;;;6.65;3.78;;;;;;;;;;4898286;29;20170;-81
2023/09/21 10:30:52;;;;;;;6.00;4.30;;;;;;;;;;4903339;29;20036;-81
2023/09/21 10:33:18;;;;;;;8.82;4.00;;;;;;;;;;4922352;29;20605;-81
2023/09/21 10:35:49;;;;;;;7.45;3.10;;;;;;;;;;4908908;29;20033;-82
2023/09/21 10:38:16;;;;;;;7.05;3.22;;;;;;;;;;4908923;29;20105;-81
2023/09/21 10:40:41;;;;;;;6.45;3.67;;;;;;;;;;4912925;29;20147;-82
2023/09/21 10:43:39;;;;;;;7.57;3.83;;;;;;;;;;4911144;29;20051;-81
2023/09/21 10:46:16;;;;;;;9.10;4.30;;;;;;;;;;4906374;29;20049;-81
2023/09/21 10:48:44;;;;;;;5.80;3.50;;;;;;;;;;4914842;29;20406;-81
2023/09/21 10:51:09;;;;;;;10.60;3.22;;;;;;;;;;4911000;29;20115;-81
2023/09/21 10:53:35;;;;;;;5.88;3.40;;;;;;;;;;4903790;29;20071;-81
2023/09/21 10:56:01;;;;;;;5.70;3.67;;;;;;;;;;4911938;29;20444;-81
2023/09/21 10:58:26;;;;;;;5.00;3.28;;;;;;;;;;4889904;29;20032;-82
2023/09/21 11:00:52;;;;;;;8.95;4.78;;;;;;;;;;4909496;29;20036;-81
2023/09/21 11:03:18;;;;;;;3.95;2.47;;;;;;;;;;4910135;29;20134;-81
2023/09/21 11:05:44;;;;;;;6.88;3.03;;;;;;;;;;4909594;29;20152;-81
2023/09/21 11:08:10;;;;;;;7.47;3.10;;;;;;;;;;4907758;29;20051;-81
2023/09/21 11:10:36;;;;;;;8.10;2.83;;;;;;;;;;4912207;29;20042;-81
2023/09/21 11:13:01;;;;;;;6.90;2.88;;;;;;;;;;4912447;29;20458;-81
2023/09/21 11:15:26;;;;;;;6.28;3.97;;;;;;;;;;4909728;29;20461;-81
2023/09/21 11:17:51;;;;;;;10.38;3.83;;;;;;;;;;4908722;29;20033;-81
2023/09/21 11:20:20;;;;;;;6.97;3.37;;;;;;;;;;4892212;29;20466;-81
2023/09/21 11:22:46;;;;;;;8.75;4.10;;;;;;;;;;4904357;29;20293;-82
2023/09/21 11:25:14;;;;;;;7.45;3.88;;;;;;;;;;4908997;29;20080;-82
2023/09/21 11:27:40;;;;;;;8.30;3.97;;;;;;;;;;4908833;29;20489;-81
2023/09/21 11:30:07;;;;;;;8.00;4.72;;;;;;;;;;4903202;29;20171;-81
2023/09/21 11:32:39;;;;;;;8.77;3.58;;;;;;;;;;4898776;29;20108;-81
2023/09/21 11:35:04;;;;;;;7.05;4.35;;;;;;;;;;4908131;29;20544;-82
2023/09/21 11:37:30;;;;;;;10.27;5.05;;;;;;;;;;4923548;29;20073;-82
2023/09/21 11:39:55;;;;;;;11.02;6.43;;;;;;;;;;4908935;29;20040;-81
2023/09/21 11:42:23;;;;;;;6.03;3.77;;;;;;;;;;4915347;29;20033;-82
2023/09/21 11:44:49;;;;;;;8.18;4.68;;;;;;;;;;4910394;29;20301;-82
2023/09/21 11:47:15;;;;;;;8.98;6.00;;;;;;;;;;4916173;29;20032;-82
2023/09/21 11:49:41;;;;;;;8.63;5.25;;;;;;;;;;4914037;29;20032;-82
2023/09/21 11:52:07;;;;;;;8.25;5.32;;;;;;;;;;4913026;29;20032;-82
2023/09/21 11:54:35;;;;;;;8.95;6.47;;;;;;;;;;4919873;29;20052;-82
2023/09/21 11:57:00;;;;;;;11.23;6.40;;;;;;;;;;4913438;29;20041;-82
2023/09/21 11:59:25;;;;;;;8.77;5.13;;;;;;;;;;4914006;29;20038;-82
2023/09/21 12:01:51;;;;;;;10.77;6.33;;;;;;;;;;4914342;29;20033;-82
2023/09/21 12:04:17;;;;;;;8.60;6.07;;;;;;;;;;4914372;29;20088;-82
2023/09/21 12:06:42;;;;;;;9.23;5.73;;;;;;;;;;4914451;29;20055;-82
2023/09/21 12:09:07;;;;;;;9.00;5.28;;;;;;;;;;4917193;29;20287;-82
2023/09/21 12:11:34;;;;;;;8.57;6.47;;;;;;;;;;4909429;29;20041;-82
2023/09/21 12:14:04;;;;;;;8.77;5.88;;;;;;;;;;4915795;29;20289;-82
2023/09/21 12:16:30;;;;;;;7.80;5.10;;;;;;;;;;4914392;29;20068;-82
2023/09/21 12:18:59;;;;;;;10.13;7.05;;;;;;;;;;4911352;29;20143;-81
2023/09/21 12:21:25;;;;;;;9.48;6.38;;;;;;;;;;4916279;29;20040;-82
2023/09/21 12:23:51;;;;;;;10.70;6.30;;;;;;;;;;4893270;29;20024;-82
2023/09/21 12:26:17;;;;;;;8.38;5.55;;;;;;;;;;4910864;29;20039;-82
2023/09/21 12:28:43;;;;;;;9.57;7.50;;;;;;;;;;4912895;29;20386;-82
2023/09/21 12:31:08;;;;;;;5.68;4.78;;;;;;;;;;4916838;29;20047;-82
2023/09/21 12:33:35;;;;;;;6.93;4.87;;;;;;;;;;4917969;29;20620;-82
2023/09/21 12:36:00;;;;;;;7.03;5.22;;;;;;;;;;4916291;29;20055;-82
2023/09/21 12:38:26;;;;;;;9.00;5.70;;;;;;;;;;4912501;29;20573;-82
2023/09/21 12:40:54;;;;;;;6.30;4.85;;;;;;;;;;4911849;29;20051;-82
2023/09/21 12:43:19;;;;;;;8.02;6.50;;;;;;;;;;4923382;29;20124;-82
2023/09/21 12:45:44;;;;;;;8.20;4.40;;;;;;;;;;4911023;29;20039;-82
2023/09/21 12:48:10;;;;;;;9.05;5.43;;;;;;;;;;4911630;29;20363;-82
2023/09/21 12:50:35;;;;;;;14.45;8.45;;;;;;;;;;4904792;29;20035;-83
2023/09/21 12:53:00;;;;;;;12.27;8.83;;;;;;;;;;4908692;29;20080;-82
2023/09/21 12:55:25;;;;;;;10.70;7.77;;;;;;;;;;4908864;29;20071;-82
2023/09/21 12:57:51;;;;;;;6.15;4.43;;;;;;;;;;4908879;29;20040;-83
2023/09/21 13:00:22;;;;;;;10.80;6.38;;;;;;;;;;4908388;29;20140;-83
2023/09/21 13:02:47;;;;;;;10.13;7.80;;;;;;;;;;4908973;29;20047;-83
2023/09/21 13:05:12;;;;;;;10.50;6.80;;;;;;;;;;4909040;29;20087;-83
2023/09/21 13:07:45;;;;;;;13.50;8.60;;;;;;;;;;4904910;29;20321;-83
2023/09/21 13:10:11;;;;;;;6.97;5.78;;;;;;;;;;4910020;29;20032;-83
2023/09/21 13:12:37;;;;;;;18.38;5.45;;;;;;;;;;4904395;29;20037;-83
2023/09/21 13:15:02;;;;;;;8.57;5.00;;;;;;;;;;4899614;29;20033;-83
2023/09/21 13:17:28;;;;;;;8.45;6.03;;;;;;;;;;4892306;29;20047;-83
2023/09/21 13:19:54;;;;;;;13.80;6.80;;;;;;;;;;4909443;29;20028;-83
2023/09/21 13:22:19;;;;;;;10.50;7.30;;;;;;;;;;4907226;29;20060;-83
2023/09/21 13:24:44;;;;;;;8.95;5.18;;;;;;;;;;4906497;29;20073;-82
2023/09/21 13:27:10;;;;;;;7.57;6.43;;;;;;;;;;4914545;29;20060;-82
2023/09/21 13:29:35;;;;;;;9.80;5.95;;;;;;;;;;4911630;29;20123;-82
2023/09/21 13:32:01;;;;;;;6.70;5.47;;;;;;;;;;4913889;29;20389;-82
2023/09/21 13:34:26;;;;;;;12.10;5.57;;;;;;;;;;4909090;29;20520;-82
2023/09/21 13:36:51;;;;;;;8.73;4.63;;;;;;;;;;4910833;29;20072;-83
2023/09/21 13:39:18;;;;;;;5.77;4.53;;;;;;;;;;4905384;29;20035;-82
2023/09/21 13:41:46;;;;;;;7.70;4.80;;;;;;;;;;4900411;29;20044;-82
2023/09/21 13:44:12;;;;;;;7.38;4.72;;;;;;;;;;4914943;29;20042;-82
2023/09/21 13:46:37;;;;;;;7.83;5.90;;;;;;;;;;4914535;29;20033;-82
2023/09/21 13:49:03;;;;;;;7.80;5.20;;;;;;;;;;4913268;29;20084;-81
2023/09/21 13:51:28;;;;;;;10.55;4.00;;;;;;;;;;4914962;29;20028;-83
2023/09/21 13:53:53;;;;;;;10.40;5.60;;;;;;;;;;4913603;29;20537;-82
2023/09/21 13:56:18;;;;;;;9.80;4.33;;;;;;;;;;4914044;29;20764;-82
2023/09/21 13:58:44;;;;;;;11.87;4.40;;;;;;;;;;4911513;29;20040;-82
2023/09/21 14:01:09;;;;;;;7.35;6.00;;;;;;;;;;4913249;29;20056;-82
2023/09/21 14:03:38;;;;;;;9.13;5.60;;;;;;;;;;4913162;29;20106;-82
2023/09/21 14:06:03;;;;;;;9.75;7.65;;;;;;;;;;4911789;29;20040;-81
2023/09/21 14:08:28;;;;;;;11.87;6.40;;;;;;;;;;4908053;29;20115;-82
2023/09/21 14:10:53;;;;;;;7.70;4.77;;;;;;;;;;4911599;29;20036;-82
2023/09/21 14:13:18;;;;;;;14.57;5.47;;;;;;;;;;4911697;29;20029;-77
2023/09/21 14:15:44;;;;;;;10.50;6.97;;;;;;;;;;4904677;29;20557;-77
2023/09/21 14:18:09;;;;;;;7.05;4.50;;;;;;;;;;4905871;29;20287;-78
2023/09/21 14:20:35;;;;;;;7.70;4.50;;;;;;;;;;4908485;29;20040;-78
2023/09/21 14:23:00;;;;;;;6.13;4.10;;;;;;;;;;4907520;29;20062;-78
2023/09/21 14:25:25;;;;;;;6.78;4.18;;;;;;;;;;4903153;29;20289;-75
2023/09/21 14:27:51;;;;;;;9.10;5.13;;;;;;;;;;4907453;29;20060;-78
2023/09/21 14:30:16;;;;;;;9.93;4.25;;;;;;;;;;4904381;29;20548;-77
2023/09/21 14:32:43;;;;;;;8.88;4.03;;;;;;;;;;4897455;29;20513;-76
2023/09/21 14:35:09;;;;;;;7.07;4.22;;;;;;;;;;4901717;29;20051;-77